sensor_id;sensor_type;location;lat;lon;timestamp;P1;durP1;ratioP1;P2;durP2;ratioP2
68126;SDS011;54931;52.098;21.006;2023-04-09T00:00:47;44.30;;;18.80;;
68126;SDS011;54931;52.098;21.006;2023-04-09T00:03:33;48.20;;;19.70;;
68126;SDS011;54931;52.098;21.006;2023-04-09T00:06:01;46.60;;;19.80;;
68126;SDS011;54931;52.098;21.006;2023-04-09T00:08:29;48.20;;;19.80;;
68126;SDS011;54931;52.098;21.006;2023-04-09T00:10:58;41.00;;;18.90;;
68126;SDS011;54931;52.098;21.006;2023-04-09T00:13:26;53.00;;;20.70;;
68126;SDS011;54931;52.098;21.006;2023-04-09T00:15:53;51.60;;;21.40;;
68126;SDS011;54931;52.098;21.006;2023-04-09T00:18:21;49.50;;;20.60;;
68126;SDS011;54931;52.098;21.006;2023-04-09T00:20:48;48.30;;;19.30;;
68126;SDS011;54931;52.098;21.006;2023-04-09T00:23:16;43.30;;;19.30;;
68126;SDS011;54931;52.098;21.006;2023-04-09T00:25:44;48.10;;;19.60;;
68126;SDS011;54931;52.098;21.006;2023-04-09T00:28:11;50.20;;;20.10;;
68126;SDS011;54931;52.098;21.006;2023-04-09T00:30:39;46.40;;;19.40;;
68126;SDS011;54931;52.098;21.006;2023-04-09T00:33:07;45.40;;;19.10;;
68126;SDS011;54931;52.098;21.006;2023-04-09T00:35:34;51.30;;;19.90;;
68126;SDS011;54931;52.098;21.006;2023-04-09T00:38:02;50.30;;;20.40;;
68126;SDS011;54931;52.098;21.006;2023-04-09T00:40:30;44.40;;;19.00;;
68126;SDS011;54931;52.098;21.006;2023-04-09T00:42:57;40.90;;;17.80;;
68126;SDS011;54931;52.098;21.006;2023-04-09T00:45:25;43.70;;;18.60;;
68126;SDS011;54931;52.098;21.006;2023-04-09T00:47:53;46.30;;;18.50;;
68126;SDS011;54931;52.098;21.006;2023-04-09T00:50:20;39.70;;;16.90;;
68126;SDS011;54931;52.098;21.006;2023-04-09T00:52:48;48.70;;;20.10;;
68126;SDS011;54931;52.098;21.006;2023-04-09T00:55:17;48.80;;;19.50;;
68126;SDS011;54931;52.098;21.006;2023-04-09T00:57:45;53.20;;;20.00;;
68126;SDS011;54931;52.098;21.006;2023-04-09T01:00:13;53.10;;;19.00;;
68126;SDS011;54931;52.098;21.006;2023-04-09T01:02:42;52.90;;;19.20;;
68126;SDS011;54931;52.098;21.006;2023-04-09T01:05:11;58.50;;;20.70;;
68126;SDS011;54931;52.098;21.006;2023-04-09T01:07:52;55.60;;;20.90;;
68126;SDS011;54931;52.098;21.006;2023-04-09T01:10:41;51.50;;;19.20;;
68126;SDS011;54931;52.098;21.006;2023-04-09T01:13:17;52.70;;;19.40;;
68126;SDS011;54931;52.098;21.006;2023-04-09T01:18:35;53.70;;;20.30;;
68126;SDS011;54931;52.098;21.006;2023-04-09T01:21:12;54.70;;;21.60;;
68126;SDS011;54931;52.098;21.006;2023-04-09T01:24:43;56.20;;;20.60;;
68126;SDS011;54931;52.098;21.006;2023-04-09T01:27:07;61.40;;;20.70;;
68126;SDS011;54931;52.098;21.006;2023-04-09T01:29:42;61.60;;;22.00;;
68126;SDS011;54931;52.098;21.006;2023-04-09T01:32:15;52.90;;;20.40;;
68126;SDS011;54931;52.098;21.006;2023-04-09T01:34:46;56.30;;;20.00;;
68126;SDS011;54931;52.098;21.006;2023-04-09T01:37:16;60.50;;;21.60;;
68126;SDS011;54931;52.098;21.006;2023-04-09T01:39:46;60.40;;;20.10;;
68126;SDS011;54931;52.098;21.006;2023-04-09T01:42:14;57.30;;;20.70;;
68126;SDS011;54931;52.098;21.006;2023-04-09T01:44:44;58.70;;;21.10;;
68126;SDS011;54931;52.098;21.006;2023-04-09T01:47:12;60.60;;;20.60;;
68126;SDS011;54931;52.098;21.006;2023-04-09T01:49:40;50.40;;;20.30;;
68126;SDS011;54931;52.098;21.006;2023-04-09T01:52:10;55.10;;;20.20;;
68126;SDS011;54931;52.098;21.006;2023-04-09T01:54:37;62.10;;;21.90;;
68126;SDS011;54931;52.098;21.006;2023-04-09T01:57:05;55.90;;;20.80;;
68126;SDS011;54931;52.098;21.006;2023-04-09T01:59:33;55.90;;;21.00;;
68126;SDS011;54931;52.098;21.006;2023-04-09T02:02:06;55.80;;;21.10;;
68126;SDS011;54931;52.098;21.006;2023-04-09T02:04:42;51.70;;;19.30;;
68126;SDS011;54931;52.098;21.006;2023-04-09T02:07:46;54.40;;;20.50;;
68126;SDS011;54931;52.098;21.006;2023-04-09T02:10:23;45.80;;;17.80;;
68126;SDS011;54931;52.098;21.006;2023-04-09T02:12:54;59.20;;;21.30;;
68126;SDS011;54931;52.098;21.006;2023-04-09T02:15:25;48.80;;;17.40;;
68126;SDS011;54931;52.098;21.006;2023-04-09T02:17:54;50.80;;;18.00;;
68126;SDS011;54931;52.098;21.006;2023-04-09T02:20:22;51.80;;;21.10;;
68126;SDS011;54931;52.098;21.006;2023-04-09T02:22:51;49.40;;;20.40;;
68126;SDS011;54931;52.098;21.006;2023-04-09T02:25:18;53.60;;;21.80;;
68126;SDS011;54931;52.098;21.006;2023-04-09T02:27:46;50.70;;;20.70;;
68126;SDS011;54931;52.098;21.006;2023-04-09T02:30:14;52.90;;;21.10;;
68126;SDS011;54931;52.098;21.006;2023-04-09T02:32:41;46.20;;;18.70;;
68126;SDS011;54931;52.098;21.006;2023-04-09T02:35:09;59.40;;;20.80;;
68126;SDS011;54931;52.098;21.006;2023-04-09T02:37:36;52.90;;;20.00;;
68126;SDS011;54931;52.098;21.006;2023-04-09T02:40:04;63.00;;;23.70;;
68126;SDS011;54931;52.098;21.006;2023-04-09T02:42:32;58.40;;;23.00;;
68126;SDS011;54931;52.098;21.006;2023-04-09T02:45:00;59.20;;;21.40;;
68126;SDS011;54931;52.098;21.006;2023-04-09T02:47:28;55.30;;;22.30;;
68126;SDS011;54931;52.098;21.006;2023-04-09T02:49:56;58.30;;;21.90;;
68126;SDS011;54931;52.098;21.006;2023-04-09T02:52:24;64.40;;;23.80;;
68126;SDS011;54931;52.098;21.006;2023-04-09T02:54:52;60.70;;;24.20;;
68126;SDS011;54931;52.098;21.006;2023-04-09T02:57:19;68.40;;;25.80;;
68126;SDS011;54931;52.098;21.006;2023-04-09T02:59:47;71.50;;;25.30;;
68126;SDS011;54931;52.098;21.006;2023-04-09T03:02:14;57.40;;;23.70;;
68126;SDS011;54931;52.098;21.006;2023-04-09T03:04:42;68.10;;;24.90;;
68126;SDS011;54931;52.098;21.006;2023-04-09T03:07:10;63.80;;;24.10;;
68126;SDS011;54931;52.098;21.006;2023-04-09T03:09:37;68.70;;;24.60;;
68126;SDS011;54931;52.098;21.006;2023-04-09T03:12:05;68.70;;;25.10;;
68126;SDS011;54931;52.098;21.006;2023-04-09T03:14:33;73.40;;;25.30;;
68126;SDS011;54931;52.098;21.006;2023-04-09T03:17:00;80.70;;;27.10;;
68126;SDS011;54931;52.098;21.006;2023-04-09T03:19:29;76.50;;;25.80;;
68126;SDS011;54931;52.098;21.006;2023-04-09T03:21:57;75.30;;;27.30;;
68126;SDS011;54931;52.098;21.006;2023-04-09T03:24:25;69.60;;;25.00;;
68126;SDS011;54931;52.098;21.006;2023-04-09T03:26:53;60.10;;;25.00;;
68126;SDS011;54931;52.098;21.006;2023-04-09T03:29:20;56.80;;;24.30;;
68126;SDS011;54931;52.098;21.006;2023-04-09T03:31:50;67.20;;;23.50;;
68126;SDS011;54931;52.098;21.006;2023-04-09T03:34:18;59.90;;;24.40;;
68126;SDS011;54931;52.098;21.006;2023-04-09T03:36:45;67.30;;;24.20;;
68126;SDS011;54931;52.098;21.006;2023-04-09T03:39:13;67.20;;;24.70;;
68126;SDS011;54931;52.098;21.006;2023-04-09T03:41:41;74.70;;;26.80;;
68126;SDS011;54931;52.098;21.006;2023-04-09T03:44:09;58.50;;;24.60;;
68126;SDS011;54931;52.098;21.006;2023-04-09T03:46:37;65.50;;;26.10;;
68126;SDS011;54931;52.098;21.006;2023-04-09T03:49:05;70.20;;;24.90;;
68126;SDS011;54931;52.098;21.006;2023-04-09T03:51:33;61.80;;;25.10;;
68126;SDS011;54931;52.098;21.006;2023-04-09T03:54:00;70.10;;;26.10;;
68126;SDS011;54931;52.098;21.006;2023-04-09T03:56:28;75.60;;;26.90;;
68126;SDS011;54931;52.098;21.006;2023-04-09T03:58:56;62.70;;;25.50;;
68126;SDS011;54931;52.098;21.006;2023-04-09T04:01:23;69.70;;;25.50;;
68126;SDS011;54931;52.098;21.006;2023-04-09T04:03:51;75.40;;;26.20;;
68126;SDS011;54931;52.098;21.006;2023-04-09T04:06:18;71.70;;;25.60;;
68126;SDS011;54931;52.098;21.006;2023-04-09T04:08:46;58.30;;;20.40;;
68126;SDS011;54931;52.098;21.006;2023-04-09T04:11:13;45.60;;;18.30;;
68126;SDS011;54931;52.098;21.006;2023-04-09T04:13:41;45.60;;;19.50;;
68126;SDS011;54931;52.098;21.006;2023-04-09T04:16:09;45.00;;;19.70;;
68126;SDS011;54931;52.098;21.006;2023-04-09T04:18:37;46.90;;;18.00;;
68126;SDS011;54931;52.098;21.006;2023-04-09T04:21:04;36.50;;;17.00;;
68126;SDS011;54931;52.098;21.006;2023-04-09T04:23:33;40.70;;;17.50;;
68126;SDS011;54931;52.098;21.006;2023-04-09T04:26:01;44.50;;;18.30;;
68126;SDS011;54931;52.098;21.006;2023-04-09T04:28:32;44.00;;;17.40;;
68126;SDS011;54931;52.098;21.006;2023-04-09T04:31:00;44.70;;;17.80;;
68126;SDS011;54931;52.098;21.006;2023-04-09T04:33:27;44.40;;;18.20;;
68126;SDS011;54931;52.098;21.006;2023-04-09T04:36:06;58.30;;;21.90;;
68126;SDS011;54931;52.098;21.006;2023-04-09T04:38:39;68.30;;;24.10;;
68126;SDS011;54931;52.098;21.006;2023-04-09T04:41:09;83.70;;;28.50;;
68126;SDS011;54931;52.098;21.006;2023-04-09T04:43:38;82.90;;;27.80;;
68126;SDS011;54931;52.098;21.006;2023-04-09T04:46:07;71.90;;;23.20;;
68126;SDS011;54931;52.098;21.006;2023-04-09T04:48:34;52.20;;;20.30;;
68126;SDS011;54931;52.098;21.006;2023-04-09T04:51:02;52.90;;;21.30;;
68126;SDS011;54931;52.098;21.006;2023-04-09T04:53:30;70.60;;;23.70;;
68126;SDS011;54931;52.098;21.006;2023-04-09T04:55:57;80.90;;;27.60;;
68126;SDS011;54931;52.098;21.006;2023-04-09T04:58:25;89.40;;;27.40;;
68126;SDS011;54931;52.098;21.006;2023-04-09T05:00:53;93.40;;;29.90;;
68126;SDS011;54931;52.098;21.006;2023-04-09T05:03:20;86.30;;;29.30;;
68126;SDS011;54931;52.098;21.006;2023-04-09T05:05:48;91.30;;;30.30;;
68126;SDS011;54931;52.098;21.006;2023-04-09T05:08:15;90.40;;;30.30;;
68126;SDS011;54931;52.098;21.006;2023-04-09T05:10:43;86.60;;;29.20;;
68126;SDS011;54931;52.098;21.006;2023-04-09T05:13:11;86.80;;;30.10;;
68126;SDS011;54931;52.098;21.006;2023-04-09T05:15:39;83.50;;;29.50;;
68126;SDS011;54931;52.098;21.006;2023-04-09T05:18:07;81.80;;;28.10;;
68126;SDS011;54931;52.098;21.006;2023-04-09T05:20:36;82.00;;;28.30;;
68126;SDS011;54931;52.098;21.006;2023-04-09T05:23:03;84.30;;;28.70;;
68126;SDS011;54931;52.098;21.006;2023-04-09T05:25:31;80.80;;;28.30;;
68126;SDS011;54931;52.098;21.006;2023-04-09T05:27:58;82.80;;;28.60;;
68126;SDS011;54931;52.098;21.006;2023-04-09T05:30:26;77.10;;;27.70;;
68126;SDS011;54931;52.098;21.006;2023-04-09T05:32:53;73.10;;;25.70;;
68126;SDS011;54931;52.098;21.006;2023-04-09T05:35:21;66.50;;;25.30;;
68126;SDS011;54931;52.098;21.006;2023-04-09T05:37:49;72.00;;;25.60;;
68126;SDS011;54931;52.098;21.006;2023-04-09T05:40:16;55.50;;;21.10;;
68126;SDS011;54931;52.098;21.006;2023-04-09T05:42:44;51.60;;;21.00;;
68126;SDS011;54931;52.098;21.006;2023-04-09T05:45:12;61.40;;;23.30;;
68126;SDS011;54931;52.098;21.006;2023-04-09T05:47:39;45.10;;;17.50;;
68126;SDS011;54931;52.098;21.006;2023-04-09T05:50:07;60.20;;;22.90;;
68126;SDS011;54931;52.098;21.006;2023-04-09T05:52:36;66.00;;;24.40;;
68126;SDS011;54931;52.098;21.006;2023-04-09T05:55:04;56.90;;;22.40;;
68126;SDS011;54931;52.098;21.006;2023-04-09T05:57:32;66.90;;;25.30;;
68126;SDS011;54931;52.098;21.006;2023-04-09T06:00:00;55.70;;;24.40;;
68126;SDS011;54931;52.098;21.006;2023-04-09T06:02:28;54.80;;;20.30;;
68126;SDS011;54931;52.098;21.006;2023-04-09T06:04:56;60.50;;;24.10;;
68126;SDS011;54931;52.098;21.006;2023-04-09T06:07:23;55.20;;;22.60;;
68126;SDS011;54931;52.098;21.006;2023-04-09T06:09:51;64.00;;;23.90;;
68126;SDS011;54931;52.098;21.006;2023-04-09T06:12:18;63.00;;;23.80;;
68126;SDS011;54931;52.098;21.006;2023-04-09T06:14:49;51.90;;;21.30;;
68126;SDS011;54931;52.098;21.006;2023-04-09T06:17:16;54.50;;;21.60;;
68126;SDS011;54931;52.098;21.006;2023-04-09T06:19:44;53.50;;;23.50;;
68126;SDS011;54931;52.098;21.006;2023-04-09T06:22:11;59.50;;;21.70;;
68126;SDS011;54931;52.098;21.006;2023-04-09T06:24:39;35.50;;;16.40;;
68126;SDS011;54931;52.098;21.006;2023-04-09T06:27:06;31.50;;;15.00;;
68126;SDS011;54931;52.098;21.006;2023-04-09T06:29:34;45.90;;;20.20;;
68126;SDS011;54931;52.098;21.006;2023-04-09T06:32:02;39.50;;;19.10;;
68126;SDS011;54931;52.098;21.006;2023-04-09T06:34:30;38.20;;;18.20;;
68126;SDS011;54931;52.098;21.006;2023-04-09T06:36:57;34.70;;;16.90;;
68126;SDS011;54931;52.098;21.006;2023-04-09T06:39:25;28.30;;;15.40;;
68126;SDS011;54931;52.098;21.006;2023-04-09T06:41:53;33.20;;;15.80;;
68126;SDS011;54931;52.098;21.006;2023-04-09T06:44:21;28.10;;;14.50;;
68126;SDS011;54931;52.098;21.006;2023-04-09T06:46:50;26.20;;;13.80;;
68126;SDS011;54931;52.098;21.006;2023-04-09T06:49:18;25.40;;;13.60;;
68126;SDS011;54931;52.098;21.006;2023-04-09T06:51:46;25.80;;;14.00;;
68126;SDS011;54931;52.098;21.006;2023-04-09T06:54:14;26.20;;;13.40;;
68126;SDS011;54931;52.098;21.006;2023-04-09T06:56:41;22.20;;;12.40;;
68126;SDS011;54931;52.098;21.006;2023-04-09T06:59:09;24.00;;;12.90;;
68126;SDS011;54931;52.098;21.006;2023-04-09T07:01:37;24.30;;;13.20;;
68126;SDS011;54931;52.098;21.006;2023-04-09T07:04:05;22.90;;;13.10;;
68126;SDS011;54931;52.098;21.006;2023-04-09T07:06:33;22.70;;;12.50;;
68126;SDS011;54931;52.098;21.006;2023-04-09T07:09:00;19.60;;;11.30;;
68126;SDS011;54931;52.098;21.006;2023-04-09T07:11:28;19.10;;;11.50;;
68126;SDS011;54931;52.098;21.006;2023-04-09T07:13:56;20.00;;;12.00;;
68126;SDS011;54931;52.098;21.006;2023-04-09T07:16:23;19.80;;;11.60;;
68126;SDS011;54931;52.098;21.006;2023-04-09T07:18:51;33.70;;;16.70;;
68126;SDS011;54931;52.098;21.006;2023-04-09T07:21:19;62.40;;;25.60;;
68126;SDS011;54931;52.098;21.006;2023-04-09T07:23:46;51.10;;;22.40;;
68126;SDS011;54931;52.098;21.006;2023-04-09T07:26:14;20.60;;;11.40;;
68126;SDS011;54931;52.098;21.006;2023-04-09T07:28:41;30.30;;;14.70;;
68126;SDS011;54931;52.098;21.006;2023-04-09T07:31:10;21.30;;;12.90;;
68126;SDS011;54931;52.098;21.006;2023-04-09T07:33:38;16.20;;;9.90;;
68126;SDS011;54931;52.098;21.006;2023-04-09T07:36:05;13.60;;;7.90;;
68126;SDS011;54931;52.098;21.006;2023-04-09T07:38:33;13.80;;;8.50;;
68126;SDS011;54931;52.098;21.006;2023-04-09T07:41:01;14.00;;;8.50;;
68126;SDS011;54931;52.098;21.006;2023-04-09T07:43:29;12.70;;;7.90;;
68126;SDS011;54931;52.098;21.006;2023-04-09T07:45:58;13.40;;;8.00;;
68126;SDS011;54931;52.098;21.006;2023-04-09T07:48:25;12.80;;;8.10;;
68126;SDS011;54931;52.098;21.006;2023-04-09T07:50:54;11.90;;;8.40;;
68126;SDS011;54931;52.098;21.006;2023-04-09T07:53:21;13.20;;;7.90;;
68126;SDS011;54931;52.098;21.006;2023-04-09T07:55:50;10.40;;;6.80;;
68126;SDS011;54931;52.098;21.006;2023-04-09T07:58:18;10.80;;;7.00;;
68126;SDS011;54931;52.098;21.006;2023-04-09T08:00:47;15.50;;;9.40;;
68126;SDS011;54931;52.098;21.006;2023-04-09T08:03:14;16.50;;;9.80;;
68126;SDS011;54931;52.098;21.006;2023-04-09T08:05:43;13.20;;;8.10;;
68126;SDS011;54931;52.098;21.006;2023-04-09T08:08:11;14.20;;;9.30;;
68126;SDS011;54931;52.098;21.006;2023-04-09T08:10:39;15.80;;;9.70;;
68126;SDS011;54931;52.098;21.006;2023-04-09T08:13:06;14.40;;;9.00;;
68126;SDS011;54931;52.098;21.006;2023-04-09T08:15:34;13.70;;;8.80;;
68126;SDS011;54931;52.098;21.006;2023-04-09T08:18:02;14.50;;;8.90;;
68126;SDS011;54931;52.098;21.006;2023-04-09T08:20:30;13.90;;;8.50;;
68126;SDS011;54931;52.098;21.006;2023-04-09T08:22:59;14.80;;;8.50;;
68126;SDS011;54931;52.098;21.006;2023-04-09T08:25:26;14.50;;;9.70;;
68126;SDS011;54931;52.098;21.006;2023-04-09T08:27:54;18.00;;;9.60;;
68126;SDS011;54931;52.098;21.006;2023-04-09T08:30:22;12.60;;;8.30;;
68126;SDS011;54931;52.098;21.006;2023-04-09T08:37:44;15.00;;;9.40;;
68126;SDS011;54931;52.098;21.006;2023-04-09T08:40:12;12.90;;;9.60;;
68126;SDS011;54931;52.098;21.006;2023-04-09T08:42:43;13.60;;;9.60;;
68126;SDS011;54931;52.098;21.006;2023-04-09T08:45:12;14.20;;;9.00;;
68126;SDS011;54931;52.098;21.006;2023-04-09T08:47:41;12.00;;;8.40;;
68126;SDS011;54931;52.098;21.006;2023-04-09T08:50:10;11.70;;;8.60;;
68126;SDS011;54931;52.098;21.006;2023-04-09T08:52:38;12.90;;;8.30;;
68126;SDS011;54931;52.098;21.006;2023-04-09T08:55:06;12.00;;;8.30;;
68126;SDS011;54931;52.098;21.006;2023-04-09T08:57:37;12.80;;;8.30;;
68126;SDS011;54931;52.098;21.006;2023-04-09T09:00:06;13.80;;;8.40;;
68126;SDS011;54931;52.098;21.006;2023-04-09T09:02:35;11.00;;;7.60;;
68126;SDS011;54931;52.098;21.006;2023-04-09T09:05:05;13.40;;;8.70;;
68126;SDS011;54931;52.098;21.006;2023-04-09T09:07:33;13.60;;;8.60;;
68126;SDS011;54931;52.098;21.006;2023-04-09T09:10:01;13.40;;;8.80;;
68126;SDS011;54931;52.098;21.006;2023-04-09T09:12:39;11.20;;;7.90;;
68126;SDS011;54931;52.098;21.006;2023-04-09T09:15:28;11.50;;;7.70;;
68126;SDS011;54931;52.098;21.006;2023-04-09T09:17:58;14.00;;;8.90;;
68126;SDS011;54931;52.098;21.006;2023-04-09T09:20:26;13.10;;;8.40;;
68126;SDS011;54931;52.098;21.006;2023-04-09T09:22:55;11.50;;;7.70;;
68126;SDS011;54931;52.098;21.006;2023-04-09T09:25:23;13.60;;;7.90;;
68126;SDS011;54931;52.098;21.006;2023-04-09T09:27:53;12.10;;;8.00;;
68126;SDS011;54931;52.098;21.006;2023-04-09T09:33:08;13.00;;;7.60;;
68126;SDS011;54931;52.098;21.006;2023-04-09T09:35:51;12.80;;;8.20;;
68126;SDS011;54931;52.098;21.006;2023-04-09T09:38:20;13.40;;;7.80;;
68126;SDS011;54931;52.098;21.006;2023-04-09T09:40:48;12.10;;;8.00;;
68126;SDS011;54931;52.098;21.006;2023-04-09T09:43:16;11.00;;;7.10;;
68126;SDS011;54931;52.098;21.006;2023-04-09T09:45:45;11.40;;;7.20;;
68126;SDS011;54931;52.098;21.006;2023-04-09T09:48:14;12.00;;;7.30;;
68126;SDS011;54931;52.098;21.006;2023-04-09T09:50:43;15.10;;;7.50;;
68126;SDS011;54931;52.098;21.006;2023-04-09T09:53:16;12.60;;;7.00;;
68126;SDS011;54931;52.098;21.006;2023-04-09T09:55:52;10.40;;;6.60;;
68126;SDS011;54931;52.098;21.006;2023-04-09T09:58:27;11.40;;;6.70;;
68126;SDS011;54931;52.098;21.006;2023-04-09T10:01:07;10.70;;;6.70;;
68126;SDS011;54931;52.098;21.006;2023-04-09T10:03:38;13.80;;;7.10;;
68126;SDS011;54931;52.098;21.006;2023-04-09T10:06:10;8.90;;;6.10;;
68126;SDS011;54931;52.098;21.006;2023-04-09T10:08:41;10.20;;;6.50;;
68126;SDS011;54931;52.098;21.006;2023-04-09T10:11:09;10.30;;;6.20;;
68126;SDS011;54931;52.098;21.006;2023-04-09T10:13:40;12.10;;;6.70;;
68126;SDS011;54931;52.098;21.006;2023-04-09T10:16:13;7.60;;;5.30;;
68126;SDS011;54931;52.098;21.006;2023-04-09T10:18:41;9.50;;;5.40;;
68126;SDS011;54931;52.098;21.006;2023-04-09T10:21:39;7.80;;;4.80;;
68126;SDS011;54931;52.098;21.006;2023-04-09T10:24:12;7.20;;;5.00;;
68126;SDS011;54931;52.098;21.006;2023-04-09T10:26:42;8.00;;;5.00;;
68126;SDS011;54931;52.098;21.006;2023-04-09T10:29:15;6.80;;;5.10;;
68126;SDS011;54931;52.098;21.006;2023-04-09T10:32:05;8.90;;;5.30;;
68126;SDS011;54931;52.098;21.006;2023-04-09T10:34:36;7.30;;;5.20;;
68126;SDS011;54931;52.098;21.006;2023-04-09T10:37:07;7.50;;;5.30;;
68126;SDS011;54931;52.098;21.006;2023-04-09T10:39:43;8.20;;;5.40;;
68126;SDS011;54931;52.098;21.006;2023-04-09T10:42:19;9.90;;;5.70;;
68126;SDS011;54931;52.098;21.006;2023-04-09T10:45:12;10.20;;;5.80;;
68126;SDS011;54931;52.098;21.006;2023-04-09T10:47:43;10.10;;;6.00;;
68126;SDS011;54931;52.098;21.006;2023-04-09T10:50:26;7.80;;;5.40;;
68126;SDS011;54931;52.098;21.006;2023-04-09T10:52:56;8.80;;;5.40;;
68126;SDS011;54931;52.098;21.006;2023-04-09T10:55:36;7.60;;;5.80;;
68126;SDS011;54931;52.098;21.006;2023-04-09T10:58:10;8.50;;;5.60;;
68126;SDS011;54931;52.098;21.006;2023-04-09T11:00:45;9.10;;;5.50;;
68126;SDS011;54931;52.098;21.006;2023-04-09T11:06:03;8.20;;;5.70;;
68126;SDS011;54931;52.098;21.006;2023-04-09T11:08:36;8.00;;;5.40;;
68126;SDS011;54931;52.098;21.006;2023-04-09T11:11:04;9.90;;;5.20;;
68126;SDS011;54931;52.098;21.006;2023-04-09T11:13:32;9.00;;;5.50;;
68126;SDS011;54931;52.098;21.006;2023-04-09T11:16:00;9.40;;;6.50;;
68126;SDS011;54931;52.098;21.006;2023-04-09T11:18:33;10.30;;;6.30;;
68126;SDS011;54931;52.098;21.006;2023-04-09T11:21:02;9.50;;;6.20;;
68126;SDS011;54931;52.098;21.006;2023-04-09T11:23:31;9.60;;;5.90;;
68126;SDS011;54931;52.098;21.006;2023-04-09T11:25:59;9.60;;;6.10;;
68126;SDS011;54931;52.098;21.006;2023-04-09T11:28:28;9.80;;;6.40;;
68126;SDS011;54931;52.098;21.006;2023-04-09T11:30:56;10.80;;;6.00;;
68126;SDS011;54931;52.098;21.006;2023-04-09T11:33:31;9.10;;;5.90;;
68126;SDS011;54931;52.098;21.006;2023-04-09T11:36:00;10.70;;;6.00;;
68126;SDS011;54931;52.098;21.006;2023-04-09T11:38:30;11.80;;;6.40;;
68126;SDS011;54931;52.098;21.006;2023-04-09T11:40:58;11.30;;;6.10;;
68126;SDS011;54931;52.098;21.006;2023-04-09T11:43:25;8.50;;;6.00;;
68126;SDS011;54931;52.098;21.006;2023-04-09T11:45:53;13.90;;;7.60;;
68126;SDS011;54931;52.098;21.006;2023-04-09T11:48:22;13.00;;;7.10;;
68126;SDS011;54931;52.098;21.006;2023-04-09T11:50:51;12.50;;;7.30;;
68126;SDS011;54931;52.098;21.006;2023-04-09T11:53:20;13.30;;;7.00;;
68126;SDS011;54931;52.098;21.006;2023-04-09T11:55:50;14.20;;;6.90;;
68126;SDS011;54931;52.098;21.006;2023-04-09T11:58:22;10.70;;;6.70;;
68126;SDS011;54931;52.098;21.006;2023-04-09T12:00:53;12.00;;;6.80;;
68126;SDS011;54931;52.098;21.006;2023-04-09T12:03:27;12.10;;;6.90;;
68126;SDS011;54931;52.098;21.006;2023-04-09T12:06:01;11.60;;;6.10;;
68126;SDS011;54931;52.098;21.006;2023-04-09T12:08:29;9.90;;;5.40;;
68126;SDS011;54931;52.098;21.006;2023-04-09T12:11:10;10.20;;;5.90;;
68126;SDS011;54931;52.098;21.006;2023-04-09T12:13:39;11.00;;;6.20;;
68126;SDS011;54931;52.098;21.006;2023-04-09T12:16:13;8.00;;;5.80;;
68126;SDS011;54931;52.098;21.006;2023-04-09T12:18:47;8.20;;;5.40;;
68126;SDS011;54931;52.098;21.006;2023-04-09T12:21:16;7.20;;;4.60;;
68126;SDS011;54931;52.098;21.006;2023-04-09T12:23:44;9.40;;;5.70;;
68126;SDS011;54931;52.098;21.006;2023-04-09T12:26:12;9.00;;;5.80;;
68126;SDS011;54931;52.098;21.006;2023-04-09T12:28:40;9.50;;;6.70;;
68126;SDS011;54931;52.098;21.006;2023-04-09T12:31:10;11.00;;;5.90;;
68126;SDS011;54931;52.098;21.006;2023-04-09T12:33:38;8.10;;;5.50;;
68126;SDS011;54931;52.098;21.006;2023-04-09T12:36:07;12.10;;;5.70;;
68126;SDS011;54931;52.098;21.006;2023-04-09T12:38:36;8.90;;;5.80;;
68126;SDS011;54931;52.098;21.006;2023-04-09T12:41:04;7.30;;;4.20;;
68126;SDS011;54931;52.098;21.006;2023-04-09T12:43:31;8.10;;;5.70;;
68126;SDS011;54931;52.098;21.006;2023-04-09T12:45:59;8.90;;;5.70;;
68126;SDS011;54931;52.098;21.006;2023-04-09T12:48:28;7.60;;;4.90;;
68126;SDS011;54931;52.098;21.006;2023-04-09T12:50:55;8.70;;;6.10;;
68126;SDS011;54931;52.098;21.006;2023-04-09T12:53:23;8.90;;;5.90;;
68126;SDS011;54931;52.098;21.006;2023-04-09T12:55:50;10.50;;;6.40;;
68126;SDS011;54931;52.098;21.006;2023-04-09T12:58:18;9.80;;;6.20;;
68126;SDS011;54931;52.098;21.006;2023-04-09T13:00:46;8.00;;;5.80;;
68126;SDS011;54931;52.098;21.006;2023-04-09T13:03:14;10.00;;;6.00;;
68126;SDS011;54931;52.098;21.006;2023-04-09T13:05:44;9.00;;;5.80;;
68126;SDS011;54931;52.098;21.006;2023-04-09T13:08:12;8.90;;;5.80;;
68126;SDS011;54931;52.098;21.006;2023-04-09T13:10:39;7.90;;;5.20;;
68126;SDS011;54931;52.098;21.006;2023-04-09T13:13:07;9.30;;;5.70;;
68126;SDS011;54931;52.098;21.006;2023-04-09T13:15:39;9.40;;;5.90;;
68126;SDS011;54931;52.098;21.006;2023-04-09T13:18:12;8.40;;;5.50;;
68126;SDS011;54931;52.098;21.006;2023-04-09T13:20:40;8.40;;;5.60;;
68126;SDS011;54931;52.098;21.006;2023-04-09T13:23:07;10.40;;;6.20;;
68126;SDS011;54931;52.098;21.006;2023-04-09T13:25:35;10.00;;;6.60;;
68126;SDS011;54931;52.098;21.006;2023-04-09T13:28:03;8.80;;;5.70;;
68126;SDS011;54931;52.098;21.006;2023-04-09T13:30:30;9.30;;;5.80;;
68126;SDS011;54931;52.098;21.006;2023-04-09T13:32:58;10.10;;;6.40;;
68126;SDS011;54931;52.098;21.006;2023-04-09T13:35:26;9.90;;;5.80;;
68126;SDS011;54931;52.098;21.006;2023-04-09T13:37:54;9.70;;;6.10;;
68126;SDS011;54931;52.098;21.006;2023-04-09T13:40:22;11.40;;;6.60;;
68126;SDS011;54931;52.098;21.006;2023-04-09T13:42:50;9.90;;;6.10;;
68126;SDS011;54931;52.098;21.006;2023-04-09T13:45:18;9.80;;;6.50;;
68126;SDS011;54931;52.098;21.006;2023-04-09T13:47:47;9.80;;;6.40;;
68126;SDS011;54931;52.098;21.006;2023-04-09T13:50:15;10.60;;;7.10;;
68126;SDS011;54931;52.098;21.006;2023-04-09T13:52:43;10.00;;;6.90;;
68126;SDS011;54931;52.098;21.006;2023-04-09T13:55:11;8.90;;;6.10;;
68126;SDS011;54931;52.098;21.006;2023-04-09T13:57:38;13.30;;;8.30;;
68126;SDS011;54931;52.098;21.006;2023-04-09T14:00:07;12.50;;;8.40;;
68126;SDS011;54931;52.098;21.006;2023-04-09T14:02:35;9.10;;;6.10;;
68126;SDS011;54931;52.098;21.006;2023-04-09T14:05:03;9.80;;;6.60;;
68126;SDS011;54931;52.098;21.006;2023-04-09T14:07:31;11.50;;;7.20;;
68126;SDS011;54931;52.098;21.006;2023-04-09T14:09:59;12.30;;;7.40;;
68126;SDS011;54931;52.098;21.006;2023-04-09T14:12:27;11.50;;;7.10;;
68126;SDS011;54931;52.098;21.006;2023-04-09T14:14:54;12.00;;;7.30;;
68126;SDS011;54931;52.098;21.006;2023-04-09T14:17:22;11.70;;;7.20;;
68126;SDS011;54931;52.098;21.006;2023-04-09T14:19:49;12.90;;;7.10;;
68126;SDS011;54931;52.098;21.006;2023-04-09T14:22:17;13.30;;;7.50;;
68126;SDS011;54931;52.098;21.006;2023-04-09T14:24:45;11.00;;;7.10;;
68126;SDS011;54931;52.098;21.006;2023-04-09T14:27:12;12.10;;;7.30;;
68126;SDS011;54931;52.098;21.006;2023-04-09T14:29:40;12.10;;;7.90;;
68126;SDS011;54931;52.098;21.006;2023-04-09T14:32:07;10.70;;;7.30;;
68126;SDS011;54931;52.098;21.006;2023-04-09T14:34:35;13.50;;;7.00;;
68126;SDS011;54931;52.098;21.006;2023-04-09T14:37:03;12.60;;;6.90;;
68126;SDS011;54931;52.098;21.006;2023-04-09T14:39:31;12.80;;;7.30;;
68126;SDS011;54931;52.098;21.006;2023-04-09T14:41:58;11.60;;;7.30;;